Time;durP1;ratioP1;P1;durP2;ratioP2;P2;SDS_P1;SDS_P2;PMS_P1;PMS_P2;Temp;Humidity;BMP_temperature;BMP_pressure;BME280_temperature;BME280_humidity;BME280_pressure;Samples;Min_cycle;Max_cycle;Signal;HPM_P1;HPM_P2
2023/01/02 00:00:21;;;;;;;6.35;5.00;;;3.60;99.90;;;;;;5055710;28;20207;-72
2023/01/02 00:02:48;;;;;;;5.47;4.97;;;3.60;99.90;;;;;;5055941;28;20529;-71
2023/01/02 00:05:15;;;;;;;9.70;5.75;;;3.60;99.90;;;;;;5056046;28;20227;-71
2023/01/02 00:07:42;;;;;;;5.30;4.82;;;3.60;99.90;;;;;;5056116;28;20235;-72
2023/01/02 00:10:08;;;;;;;5.45;4.93;;;3.60;99.90;;;;;;5055897;28;20203;-72
2023/01/02 00:12:36;;;;;;;6.25;4.68;;;3.60;99.90;;;;;;5056255;28;20209;-72
2023/01/02 00:15:04;;;;;;;4.97;4.47;;;3.60;99.90;;;;;;5055907;28;20224;-72
2023/01/02 00:17:30;;;;;;;8.13;4.43;;;3.60;99.90;;;;;;5055707;28;20228;-72
2023/01/02 00:19:57;;;;;;;4.53;4.13;;;3.70;99.90;;;;;;5054826;28;20212;-71
2023/01/02 00:22:24;;;;;;;6.45;3.60;;;3.60;99.90;;;;;;5055532;28;20212;-71
2023/01/02 00:24:51;;;;;;;6.28;4.00;;;3.60;99.90;;;;;;5055701;28;20197;-71
2023/01/02 00:27:17;;;;;;;4.50;4.15;;;3.70;99.90;;;;;;5055676;28;20232;-71
2023/01/02 00:29:46;;;;;;;8.43;4.65;;;3.70;99.90;;;;;;5055491;28;20208;-71
2023/01/02 00:32:12;;;;;;;5.47;4.88;;;3.70;99.90;;;;;;5055107;28;20747;-71
2023/01/02 00:34:39;;;;;;;8.10;4.50;;;3.70;99.90;;;;;;5055484;28;20200;-72
2023/01/02 00:37:06;;;;;;;5.07;4.22;;;3.70;99.90;;;;;;5055039;28;20696;-71
2023/01/02 00:39:32;;;;;;;4.57;4.18;;;3.60;99.90;;;;;;5055154;28;20223;-72
2023/01/02 00:41:59;;;;;;;6.50;4.63;;;3.70;99.90;;;;;;5055515;28;20200;-72
2023/01/02 00:44:26;;;;;;;6.65;4.97;;;3.60;99.90;;;;;;5054892;28;20204;-72
2023/01/02 00:46:54;;;;;;;8.05;5.05;;;3.60;99.90;;;;;;5055174;28;20224;-72
2023/01/02 00:49:20;;;;;;;5.22;4.10;;;3.60;99.90;;;;;;5055168;28;20201;-72
2023/01/02 00:51:47;;;;;;;4.35;3.95;;;3.60;99.90;;;;;;5054878;28;20208;-72
2023/01/02 00:54:14;;;;;;;6.43;4.03;;;3.60;99.90;;;;;;5055098;28;20212;-71
2023/01/02 00:56:40;;;;;;;5.45;4.03;;;3.60;99.90;;;;;;5054958;28;20221;-72
2023/01/02 00:59:07;;;;;;;5.00;3.92;;;3.60;99.90;;;;;;5054857;28;20227;-72
2023/01/02 01:01:34;;;;;;;4.63;3.60;;;3.60;99.90;;;;;;5054866;28;20204;-73
2023/01/02 01:04:02;;;;;;;4.05;3.67;;;3.60;99.90;;;;;;5054623;28;20255;-71
2023/01/02 01:06:28;;;;;;;3.50;2.95;;;3.60;99.90;;;;;;5054811;28;20225;-72
2023/01/02 01:08:55;;;;;;;3.20;3.00;;;3.50;99.90;;;;;;5055034;28;20200;-71
2023/01/02 01:11:22;;;;;;;7.05;3.40;;;3.50;99.90;;;;;;5054709;28;20267;-72
2023/01/02 01:13:48;;;;;;;5.10;4.55;;;3.50;99.90;;;;;;5054866;28;20200;-72
2023/01/02 01:16:17;;;;;;;4.38;4.00;;;3.50;99.90;;;;;;5054728;28;20220;-71
2023/01/02 01:18:45;;;;;;;3.78;3.47;;;3.50;99.90;;;;;;5054434;28;20228;-71
2023/01/02 01:21:16;;;;;;;4.32;3.25;;;3.50;99.90;;;;;;5054759;28;20197;-71
2023/01/02 01:23:44;;;;;;;5.80;3.78;;;3.50;99.90;;;;;;5054667;28;20185;-71
2023/01/02 01:26:12;;;;;;;3.55;3.20;;;3.50;99.90;;;;;;5054457;28;20227;-72
2023/01/02 01:28:39;;;;;;;5.13;2.90;;;3.50;99.90;;;;;;5054423;28;20200;-71
2023/01/02 05:44:52;;;;;;;4.22;3.22;;;2.70;99.90;;;;;;5464321;22;20211;-73
2023/01/02 05:47:19;;;;;;;3.92;2.72;;;2.70;99.90;;;;;;5033913;28;20216;-72
2023/01/02 05:49:46;;;;;;;3.60;3.30;;;2.70;99.90;;;;;;5034052;28;20588;-72
2023/01/02 05:52:12;;;;;;;5.03;4.35;;;2.70;99.90;;;;;;5033832;28;20212;-72
2023/01/02 05:54:39;;;;;;;7.38;5.38;;;2.70;99.90;;;;;;5033790;28;20632;-72
2023/01/02 05:57:06;;;;;;;6.75;4.50;;;2.70;99.90;;;;;;5033825;28;20208;-72
2023/01/02 05:59:32;;;;;;;5.55;4.30;;;2.70;99.90;;;;;;5034225;28;20232;-73
2023/01/02 06:02:00;;;;;;;4.90;4.20;;;2.70;99.90;;;;;;5033846;28;20201;-73
2023/01/02 06:04:27;;;;;;;3.88;3.53;;;2.70;99.90;;;;;;5033411;28;20221;-73
2023/01/02 06:06:54;;;;;;;15.40;9.75;;;2.70;99.90;;;;;;5033750;28;20197;-73
2023/01/02 06:09:20;;;;;;;9.93;7.45;;;2.70;99.90;;;;;;5033681;28;20228;-73
2023/01/02 06:11:47;;;;;;;6.45;5.80;;;2.70;99.90;;;;;;5033699;28;20197;-72
2023/01/02 06:14:14;;;;;;;6.72;5.50;;;2.70;99.90;;;;;;5033343;28;20622;-72
2023/01/02 06:16:40;;;;;;;6.72;5.47;;;2.60;99.90;;;;;;5033336;28;20695;-72
2023/01/02 06:19:09;;;;;;;11.30;5.32;;;2.60;99.90;;;;;;5033153;28;20221;-72
2023/01/02 06:21:35;;;;;;;9.35;5.75;;;2.60;99.90;;;;;;5033257;28;20575;-72
2023/01/02 06:24:02;;;;;;;5.07;4.60;;;2.60;99.90;;;;;;5033498;28;20228;-73
2023/01/02 06:26:29;;;;;;;6.22;4.55;;;2.60;99.90;;;;;;5033791;28;20197;-73
2023/01/02 06:28:57;;;;;;;5.60;5.20;;;2.60;99.90;;;;;;5033598;28;20613;-73
2023/01/02 06:31:28;;;;;;;8.02;7.22;;;2.60;99.90;;;;;;5033651;28;20575;-73
2023/01/02 06:33:55;;;;;;;6.55;5.80;;;2.60;99.90;;;;;;5033907;28;20227;-73
2023/01/02 06:36:23;;;;;;;10.20;6.10;;;2.60;99.90;;;;;;5033163;28;20201;-73
2023/01/02 06:38:50;;;;;;;6.88;6.15;;;2.70;99.90;;;;;;5033033;28;20735;-73
2023/01/02 06:41:17;;;;;;;8.68;4.40;;;2.70;99.90;;;;;;5033397;28;20252;-73
2023/01/02 06:43:46;;;;;;;6.00;4.25;;;2.70;99.90;;;;;;5033301;28;20268;-73
2023/01/02 06:46:14;;;;;;;5.38;4.85;;;2.80;99.90;;;;;;5032942;28;20703;-73
2023/01/02 06:48:41;;;;;;;4.90;4.50;;;2.80;99.90;;;;;;5033043;28;20652;-73
2023/01/02 06:51:10;;;;;;;6.85;5.13;;;2.90;99.90;;;;;;5033555;28;20209;-73
2023/01/02 06:53:39;;;;;;;6.15;4.82;;;2.90;99.90;;;;;;5033234;28;20209;-73
2023/01/02 06:56:07;;;;;;;6.25;5.65;;;2.90;99.90;;;;;;5033246;28;20201;-73
2023/01/02 06:58:36;;;;;;;6.95;6.25;;;2.90;99.90;;;;;;5033372;28;20221;-74
2023/01/02 07:01:03;;;;;;;21.70;14.60;;;2.90;99.90;;;;;;5033222;28;20201;-73
2023/01/02 07:03:30;;;;;;;8.27;7.15;;;2.90;99.90;;;;;;5033394;28;20284;-73
2023/01/02 07:06:01;;;;;;;6.35;5.75;;;2.90;99.90;;;;;;5033339;28;20212;-73
2023/01/02 07:08:28;;;;;;;6.78;5.78;;;2.90;99.90;;;;;;5033372;28;20218;-73
2023/01/02 07:11:05;;;;;;;6.18;5.57;;;2.90;99.90;;;;;;5033420;28;20205;-74
2023/01/02 07:13:31;;;;;;;8.85;6.63;;;2.90;99.90;;;;;;5033258;28;20246;-73
2023/01/02 07:16:02;;;;;;;6.32;5.72;;;3.00;99.90;;;;;;5033057;28;20742;-73
2023/01/02 07:18:29;;;;;;;6.20;5.35;;;3.00;99.90;;;;;;5033308;28;20256;-73
2023/01/02 07:20:55;;;;;;;5.22;4.72;;;3.00;99.90;;;;;;5033315;28;20251;-73
2023/01/02 07:23:22;;;;;;;5.30;4.90;;;3.00;99.90;;;;;;5033094;28;20205;-73
2023/01/02 07:25:52;;;;;;;6.20;4.50;;;3.10;99.90;;;;;;5033254;28;20701;-72
2023/01/02 07:28:20;;;;;;;4.90;4.50;;;3.10;99.90;;;;;;5033828;28;20185;-72
2023/01/02 07:30:47;;;;;;;4.68;4.13;;;3.20;99.90;;;;;;5036345;28;20197;-72
2023/01/02 07:33:14;;;;;;;4.15;3.47;;;3.20;99.90;;;;;;5037804;28;20236;-72
2023/01/02 07:35:42;;;;;;;5.95;5.07;;;3.20;99.90;;;;;;5036506;28;20222;-72
2023/01/02 07:38:09;;;;;;;6.45;4.60;;;3.30;99.90;;;;;;5036283;28;20536;-72
2023/01/02 07:40:36;;;;;;;6.43;4.97;;;3.40;99.90;;;;;;5036043;28;20573;-72
2023/01/02 07:43:03;;;;;;;5.95;4.40;;;3.40;99.90;;;;;;5036589;28;20201;-72
2023/01/02 07:45:32;;;;;;;4.60;3.88;;;3.50;99.90;;;;;;5035891;28;20603;-72
2023/01/02 07:47:59;;;;;;;6.28;3.28;;;3.50;99.90;;;;;;5036388;28;20210;-74
2023/01/02 07:50:26;;;;;;;4.35;3.60;;;3.60;99.90;;;;;;5035962;28;20657;-76
2023/01/02 07:52:52;;;;;;;4.15;3.85;;;3.70;99.90;;;;;;5035947;28;20690;-76
2023/01/02 07:55:19;;;;;;;5.18;4.40;;;3.70;99.90;;;;;;5036186;28;20225;-76
2023/01/02 07:57:46;;;;;;;5.72;5.18;;;3.80;99.90;;;;;;5036425;28;20208;-73
2023/01/02 08:00:14;;;;;;;5.22;4.82;;;3.70;99.90;;;;;;5036008;28;20249;-73
2023/01/02 08:02:42;;;;;;;8.00;6.68;;;3.70;99.90;;;;;;5036071;28;20212;-73
2023/01/02 08:05:09;;;;;;;9.70;7.40;;;3.70;99.90;;;;;;5035956;28;20221;-73
2023/01/02 08:07:35;;;;;;;8.45;7.65;;;3.60;99.90;;;;;;5035948;28;20201;-73
2023/01/02 08:10:02;;;;;;;8.63;7.63;;;3.60;99.90;;;;;;5035563;28;20201;-73
2023/01/02 08:12:29;;;;;;;10.73;6.60;;;3.60;99.90;;;;;;5035859;28;20567;-73
2023/01/02 08:14:56;;;;;;;8.90;7.38;;;3.60;99.90;;;;;;5035686;28;20233;-73
2023/01/02 08:17:22;;;;;;;9.30;6.88;;;3.60;99.90;;;;;;5035649;28;20200;-73
2023/01/02 08:19:50;;;;;;;6.85;6.25;;;3.60;99.90;;;;;;5035884;28;20681;-73
2023/01/02 08:22:17;;;;;;;6.40;5.80;;;3.70;99.90;;;;;;5035625;28;20201;-73
2023/01/02 08:24:43;;;;;;;8.45;6.60;;;3.70;99.90;;;;;;5035480;28;20246;-73
2023/01/02 08:27:10;;;;;;;14.60;9.45;;;3.80;99.90;;;;;;5035562;28;20244;-73
2023/01/02 08:29:37;;;;;;;14.13;9.95;;;3.90;99.90;;;;;;5035491;28;20201;-73
2023/01/02 08:32:04;;;;;;;14.85;10.02;;;3.90;99.90;;;;;;5035469;28;20208;-73
2023/01/02 08:34:31;;;;;;;10.50;8.82;;;4.00;99.90;;;;;;5035380;28;20221;-73
2023/01/02 08:36:59;;;;;;;10.40;8.68;;;4.10;99.90;;;;;;5035403;28;20212;-73
2023/01/02 08:39:25;;;;;;;11.30;8.50;;;4.10;99.90;;;;;;5035220;28;20222;-73
2023/01/02 08:41:52;;;;;;;7.95;7.15;;;4.20;99.90;;;;;;5034970;28;20190;-73
2023/01/02 08:44:19;;;;;;;10.00;6.57;;;4.20;99.90;;;;;;5035334;28;20225;-73
2023/01/02 08:46:45;;;;;;;11.05;8.55;;;4.20;99.90;;;;;;5034885;28;20212;-73
2023/01/02 08:49:12;;;;;;;15.18;9.40;;;4.30;99.90;;;;;;5034905;28;20604;-73
2023/01/02 08:51:39;;;;;;;23.20;13.40;;;4.30;99.90;;;;;;5035138;28;20212;-72
2023/01/02 08:54:07;;;;;;;19.15;12.88;;;4.40;99.90;;;;;;5035039;28;20221;-72
2023/01/02 08:56:34;;;;;;;15.20;9.73;;;4.40;99.90;;;;;;5035074;28;20206;-72
2023/01/02 08:59:03;;;;;;;14.88;10.00;;;4.40;99.90;;;;;;5034948;28;20243;-73
2023/01/02 09:01:31;;;;;;;13.68;9.25;;;4.40;99.90;;;;;;5034991;28;20201;-73
2023/01/02 09:03:58;;;;;;;9.45;7.97;;;4.40;99.90;;;;;;5034419;28;20735;-73
2023/01/02 09:06:27;;;;;;;13.02;9.88;;;4.40;99.90;;;;;;5034518;28;20553;-73
2023/01/02 09:08:56;;;;;;;14.40;9.43;;;4.50;99.90;;;;;;5034740;28;20201;-73
2023/01/02 09:11:26;;;;;;;11.27;8.38;;;4.60;99.90;;;;;;5034461;28;20669;-73
2023/01/02 09:13:53;;;;;;;15.43;8.98;;;4.70;99.90;;;;;;5034668;28;20232;-72
2023/01/02 09:16:20;;;;;;;14.35;9.73;;;4.70;99.90;;;;;;5034531;28;20235;-72
2023/01/02 09:18:46;;;;;;;13.98;9.27;;;4.80;99.90;;;;;;5034805;28;20197;-72
2023/01/02 09:21:13;;;;;;;12.77;8.90;;;4.90;99.90;;;;;;5034537;28;20221;-73
2023/01/02 09:23:40;;;;;;;12.85;9.60;;;4.90;99.90;;;;;;5034225;28;20668;-72
2023/01/02 09:26:08;;;;;;;13.45;9.77;;;4.90;99.90;;;;;;5034119;28;20574;-72
2023/01/02 09:28:36;;;;;;;14.88;10.00;;;5.00;99.90;;;;;;5034094;28;20621;-72
2023/01/02 09:31:05;;;;;;;11.27;9.35;;;5.00;99.90;;;;;;5034560;28;20204;-72
2023/01/02 09:33:32;;;;;;;11.50;8.35;;;5.00;99.90;;;;;;5034201;28;20197;-72
2023/01/02 09:36:01;;;;;;;11.07;7.68;;;5.10;99.90;;;;;;5033978;28;20593;-72
2023/01/02 09:38:28;;;;;;;15.15;10.82;;;5.20;99.90;;;;;;5034190;28;20233;-72
2023/01/02 09:40:57;;;;;;;16.23;12.77;;;5.20;99.90;;;;;;5033783;28;20604;-73
2023/01/02 09:43:27;;;;;;;38.47;26.08;;;5.20;99.90;;;;;;5034115;28;20208;-72
2023/01/02 09:45:57;;;;;;;25.23;15.60;;;5.30;99.90;;;;;;5034147;28;20201;-73
2023/01/02 09:48:24;;;;;;;18.60;13.40;;;5.40;99.90;;;;;;5034447;28;20189;-72
2023/01/02 09:50:51;;;;;;;18.33;11.60;;;5.40;99.90;;;;;;5034281;28;20201;-73
2023/01/02 09:53:17;;;;;;;13.95;11.30;;;5.50;99.90;;;;;;5033557;28;20227;-72
2023/01/02 09:55:50;;;;;;;17.05;13.25;;;5.50;99.90;;;;;;5034108;28;20218;-72
2023/01/02 09:58:26;;;;;;;30.13;17.08;;;5.60;99.90;;;;;;5034047;28;20270;-72
2023/01/02 10:00:54;;;;;;;30.83;16.73;;;5.70;99.90;;;;;;5034014;28;20205;-72
2023/01/02 10:03:29;;;;;;;20.83;14.70;;;5.70;99.90;;;;;;5033924;28;20668;-73
2023/01/02 10:06:15;;;;;;;21.95;14.38;;;5.70;99.90;;;;;;5034315;28;20227;-73
2023/01/02 10:08:54;;;;;;;26.08;14.73;;;5.70;99.90;;;;;;5034162;28;20234;-73
2023/01/02 10:11:35;;;;;;;22.95;14.93;;;5.80;99.90;;;;;;5034553;28;20193;-73
2023/01/02 10:14:11;;;;;;;20.75;13.32;;;5.80;99.90;;;;;;5033914;28;20221;-72
2023/01/02 10:16:43;;;;;;;16.70;11.02;;;5.80;99.90;;;;;;5033878;28;20296;-70
2023/01/02 10:19:15;;;;;;;15.73;11.50;;;5.90;99.90;;;;;;5034815;28;20536;-72
2023/01/02 10:21:43;;;;;;;17.85;11.00;;;5.90;99.90;;;;;;5033994;28;20210;-72
2023/01/02 10:24:15;;;;;;;15.70;11.52;;;6.00;99.90;;;;;;5033772;28;20225;-72
2023/01/02 10:26:47;;;;;;;14.25;10.93;;;6.00;99.90;;;;;;5034007;28;20193;-74
2023/01/02 10:29:19;;;;;;;15.48;11.48;;;6.00;99.90;;;;;;5034081;28;20192;-75
2023/01/02 10:31:51;;;;;;;16.60;12.07;;;6.00;99.90;;;;;;5033792;28;20181;-75
2023/01/02 10:34:20;;;;;;;23.75;16.63;;;6.10;99.90;;;;;;5033729;28;20295;-75
2023/01/02 10:36:48;;;;;;;24.70;17.88;;;6.10;99.90;;;;;;5033882;28;20306;-75
2023/01/02 10:39:17;;;;;;;16.65;12.48;;;6.20;99.90;;;;;;5033857;28;20201;-74
2023/01/02 10:41:48;;;;;;;15.00;9.23;;;6.30;99.90;;;;;;5033562;28;20220;-75
2023/01/02 10:44:25;;;;;;;11.32;8.70;;;6.30;99.90;;;;;;5033638;28;20283;-74
2023/01/02 10:46:54;;;;;;;14.48;8.23;;;6.30;99.90;;;;;;5033274;28;20673;-76
2023/01/02 10:49:23;;;;;;;14.77;8.07;;;6.40;99.90;;;;;;5033478;28;20212;-75
2023/01/02 10:51:58;;;;;;;8.65;7.85;;;6.40;99.90;;;;;;5033548;28;20259;-75
2023/01/02 10:54:24;;;;;;;10.27;7.63;;;6.60;99.90;;;;;;5034327;28;20225;-75
2023/01/02 10:56:53;;;;;;;10.93;8.15;;;6.60;99.90;;;;;;5033688;28;20213;-75
2023/01/02 10:59:23;;;;;;;12.23;9.05;;;6.70;99.90;;;;;;5033390;28;20558;-74
2023/01/02 11:01:53;;;;;;;12.23;9.45;;;6.70;99.90;;;;;;5033264;28;20696;-76
2023/01/02 11:04:26;;;;;;;16.27;9.70;;;6.80;99.90;;;;;;5035353;28;20629;-75
2023/01/02 11:06:56;;;;;;;12.05;8.40;;;6.90;99.90;;;;;;5038189;28;20209;-70
2023/01/02 11:09:25;;;;;;;10.00;7.60;;;7.00;99.90;;;;;;5038209;28;20220;-70
2023/01/02 11:11:54;;;;;;;9.45;7.50;;;7.10;99.90;;;;;;5037723;28;20292;-70
2023/01/02 11:14:29;;;;;;;13.30;7.50;;;7.20;99.90;;;;;;5037304;28;20632;-71
2023/01/02 11:17:05;;;;;;;10.32;7.55;;;7.20;99.90;;;;;;5037646;28;20193;-71
2023/01/02 11:19:39;;;;;;;12.02;7.50;;;7.40;99.90;;;;;;5038113;28;20594;-71
2023/01/02 11:22:09;;;;;;;9.88;7.43;;;7.50;99.90;;;;;;5036776;28;20280;-71
2023/01/02 11:24:55;;;;;;;11.13;8.10;;;7.60;99.90;;;;;;5036800;28;20221;-70
2023/01/02 11:27:29;;;;;;;13.65;7.93;;;7.70;99.90;;;;;;5038600;28;20188;-71
2023/01/02 11:29:58;;;;;;;11.32;8.45;;;7.90;99.90;;;;;;5041435;28;20205;-71
2023/01/02 11:32:37;;;;;;;12.88;9.80;;;8.00;99.90;;;;;;5039519;28;20229;-71
2023/01/02 11:35:05;;;;;;;23.92;11.95;;;8.10;99.90;;;;;;5038312;28;20692;-70
2023/01/02 11:37:34;;;;;;;14.65;9.95;;;8.10;99.90;;;;;;5038255;28;20212;-71
2023/01/02 11:40:04;;;;;;;9.57;7.78;;;8.20;99.90;;;;;;5041014;28;20208;-71
2023/01/02 11:45:23;;;;;;;10.68;8.40;;;8.30;99.90;;;;;;5037569;28;20232;-71
2023/01/02 11:47:55;;;;;;;14.65;8.05;;;8.30;99.90;;;;;;5036436;28;20236;-71
2023/01/02 11:50:24;;;;;;;11.48;7.90;;;8.30;99.90;;;;;;5036473;28;20227;-70
2023/01/02 11:52:56;;;;;;;11.48;7.88;;;8.30;99.90;;;;;;5035966;28;20659;-71
2023/01/02 11:55:39;;;;;;;11.48;7.72;;;8.30;99.90;;;;;;5036108;28;20229;-71
2023/01/02 11:58:12;;;;;;;10.23;6.57;;;8.40;99.90;;;;;;5036072;28;20185;-71
2023/01/02 12:00:41;;;;;;;7.65;5.70;;;8.50;99.90;;;;;;5036601;28;20213;-71
2023/01/02 12:03:16;;;;;;;7.30;4.50;;;8.60;99.90;;;;;;5036028;28;20205;-71
2023/01/02 12:05:56;;;;;;;6.38;4.00;;;8.60;99.90;;;;;;5036766;28;20735;-71
2023/01/02 12:08:32;;;;;;;6.25;3.42;;;8.70;99.90;;;;;;5036994;28;20194;-71
2023/01/02 12:11:13;;;;;;;7.13;4.20;;;8.80;99.90;;;;;;5036130;28;20582;-71
2023/01/02 12:13:55;;;;;;;5.50;3.60;;;8.80;99.90;;;;;;5035811;28;20208;-72
2023/01/02 12:16:33;;;;;;;3.72;3.42;;;8.90;99.90;;;;;;5035154;28;20185;-71
2023/01/02 12:19:35;;;;;;;6.68;3.38;;;8.90;99.90;;;;;;5035901;28;20212;-71
2023/01/02 12:22:12;;;;;;;6.05;3.85;;;9.00;99.90;;;;;;5035730;28;20271;-71
2023/01/02 12:24:49;;;;;;;7.35;3.28;;;9.00;99.90;;;;;;5035671;28;20229;-71
2023/01/02 12:27:26;;;;;;;6.05;4.50;;;9.00;99.90;;;;;;5035608;28;20189;-71
2023/01/02 12:30:02;;;;;;;6.03;4.40;;;9.00;99.90;;;;;;5038906;28;20648;-71
2023/01/02 12:32:50;;;;;;;8.73;5.60;;;9.00;99.90;;;;;;5040208;28;20189;-70
2023/01/02 12:35:40;;;;;;;8.23;5.03;;;9.00;99.90;;;;;;5039840;28;20285;-70
2023/01/02 12:38:10;;;;;;;14.93;6.50;;;9.00;99.90;;;;;;5039664;28;20552;-72
2023/01/02 12:40:47;;;;;;;10.52;6.40;;;9.00;99.90;;;;;;5039888;28;20217;-72
2023/01/02 12:43:31;;;;;;;8.75;4.20;;;8.90;99.90;;;;;;5039134;28;20220;-71
2023/01/02 12:46:11;;;;;;;7.97;3.00;;;8.90;99.90;;;;;;5035077;28;20189;-73
2023/01/02 12:48:53;;;;;;;4.18;2.72;;;8.90;99.90;;;;;;5035285;28;20189;-73
2023/01/02 12:51:27;;;;;;;4.90;2.60;;;8.90;99.90;;;;;;5035198;28;20186;-72
2023/01/02 12:54:11;;;;;;;4.30;2.60;;;8.80;99.90;;;;;;5034762;28;20703;-72
2023/01/02 12:56:44;;;;;;;6.70;2.83;;;8.80;99.90;;;;;;5035117;28;20194;-72
2023/01/02 12:59:26;;;;;;;7.65;4.60;;;8.80;99.90;;;;;;5034962;28;20193;-71
2023/01/02 13:01:59;;;;;;;5.35;4.40;;;8.90;99.90;;;;;;5034849;28;20232;-71
2023/01/02 13:04:31;;;;;;;6.10;3.25;;;8.90;99.90;;;;;;5035416;28;20233;-72
2023/01/02 13:07:04;;;;;;;6.53;2.42;;;9.00;99.90;;;;;;5034879;28;20213;-72
2023/01/02 13:09:35;;;;;;;5.15;2.47;;;9.10;99.90;;;;;;5034778;28;20656;-71
2023/01/02 13:12:08;;;;;;;4.63;3.28;;;9.10;99.90;;;;;;5035107;28;20193;-71
2023/01/02 13:14:39;;;;;;;5.07;2.72;;;9.20;99.90;;;;;;5034908;28;20225;-71
2023/01/02 13:17:29;;;;;;;6.43;2.30;;;9.30;99.90;;;;;;5034697;28;20633;-71
2023/01/02 13:20:03;;;;;;;4.10;2.92;;;9.30;99.90;;;;;;5034356;28;20633;-70
2023/01/02 13:22:37;;;;;;;4.13;2.72;;;9.30;99.90;;;;;;5035014;28;20221;-72
2023/01/02 13:25:05;;;;;;;7.35;2.33;;;9.20;99.90;;;;;;5034799;28;20275;-72
2023/01/02 13:27:32;;;;;;;6.13;2.20;;;9.30;99.90;;;;;;5033366;28;20590;-72
2023/01/02 13:30:01;;;;;;;7.93;2.15;;;9.30;99.90;;;;;;5034450;28;20205;-72
2023/01/02 13:32:30;;;;;;;4.45;2.25;;;9.30;99.90;;;;;;5034434;28;20212;-72
2023/01/02 13:35:01;;;;;;;4.20;2.13;;;9.40;99.90;;;;;;5034374;28;20232;-74
2023/01/02 13:37:30;;;;;;;14.80;4.93;;;9.60;99.90;;;;;;5034327;28;20193;-72
2023/01/02 13:39:59;;;;;;;10.45;4.32;;;9.70;99.90;;;;;;5034262;28;20201;-72
2023/01/02 13:45:17;;;;;;;9.73;2.88;;;10.00;99.90;;;;;;5033979;28;20220;-71
2023/01/02 13:47:48;;;;;;;14.40;4.82;;;10.10;99.90;;;;;;5034159;28;20213;-71
2023/01/02 13:50:22;;;;;;;24.13;9.55;;;10.20;99.90;;;;;;5034244;28;20190;-73
2023/01/02 13:53:29;;;;;;;12.65;5.15;;;10.30;99.90;;;;;;5034367;28;20193;-72
2023/01/02 13:56:09;;;;;;;4.90;2.58;;;10.30;99.90;;;;;;5034120;28;20201;-74
2023/01/02 13:58:47;;;;;;;5.05;2.90;;;10.50;99.90;;;;;;5034094;28;20189;-74
2023/01/02 14:01:47;;;;;;;8.82;3.40;;;10.60;99.90;;;;;;5033829;28;20263;-73
2023/01/02 14:04:35;;;;;;;7.32;2.15;;;10.70;99.90;;;;;;5033533;28;20700;-73
2023/01/02 14:07:39;;;;;;;4.43;2.00;;;10.70;99.90;;;;;;5033388;28;20667;-71
2023/01/02 14:10:42;;;;;;;4.53;2.15;;;10.70;99.90;;;;;;5033796;28;20196;-73
2023/01/02 14:13:20;;;;;;;7.07;2.15;;;10.90;99.90;;;;;;5031184;28;20220;-72
2023/01/02 14:16:21;;;;;;;6.07;1.85;;;10.90;99.90;;;;;;5033586;28;20627;-72
2023/01/02 14:19:15;;;;;;;10.60;1.73;;;11.00;99.90;;;;;;5033782;28;20189;-73
2023/01/02 14:21:46;;;;;;;7.72;1.90;;;11.20;99.90;;;;;;5033428;28;20272;-73
2023/01/02 14:24:23;;;;;;;5.78;1.80;;;11.20;99.90;;;;;;5033438;28;20224;-72
2023/01/02 14:26:54;;;;;;;8.73;1.98;;;11.30;99.90;;;;;;5033555;28;20186;-73
2023/01/02 14:29:22;;;;;;;4.15;1.88;;;11.20;99.90;;;;;;5033726;28;20193;-73
2023/01/02 14:31:57;;;;;;;6.47;1.95;;;11.20;99.90;;;;;;5033378;28;20240;-73
2023/01/02 14:34:25;;;;;;;5.75;1.83;;;11.10;99.90;;;;;;5033404;28;20227;-73
2023/01/02 14:36:54;;;;;;;3.08;1.83;;;11.10;99.90;;;;;;5033275;28;20287;-72
2023/01/02 14:39:25;;;;;;;8.32;1.80;;;11.10;99.90;;;;;;5035105;28;20247;-73
2023/01/02 14:45:11;;;;;;;6.15;2.08;;;11.10;99.90;;;;;;5037782;28;20251;-72
2023/01/02 14:47:40;;;;;;;9.05;2.28;;;11.20;99.90;;;;;;5037193;28;20209;-72
2023/01/02 14:50:14;;;;;;;8.07;2.08;;;11.10;99.90;;;;;;5037179;28;20205;-72
2023/01/02 14:52:43;;;;;;;6.10;1.73;;;11.10;99.90;;;;;;5037381;28;20185;-72
2023/01/02 14:55:15;;;;;;;6.82;1.77;;;11.10;99.90;;;;;;5037479;28;20233;-72
2023/01/02 14:57:47;;;;;;;3.95;2.00;;;11.20;99.90;;;;;;5037204;28;20252;-72
2023/01/02 15:00:22;;;;;;;5.15;1.83;;;11.10;99.90;;;;;;5037309;28;20197;-72
2023/01/02 15:02:53;;;;;;;7.15;1.75;;;11.20;99.90;;;;;;5037090;28;20263;-73
2023/01/02 15:05:30;;;;;;;5.25;2.05;;;11.30;99.90;;;;;;5037114;28;20252;-73
2023/01/02 15:08:00;;;;;;;7.95;1.90;;;11.10;99.90;;;;;;5037173;28;20247;-72
2023/01/02 15:10:26;;;;;;;8.13;1.80;;;11.00;99.90;;;;;;5036939;28;20204;-72
2023/01/02 15:13:03;;;;;;;6.35;1.73;;;11.00;99.90;;;;;;5036989;28;20231;-73
2023/01/02 15:15:32;;;;;;;7.22;1.83;;;10.90;99.90;;;;;;5036896;28;20231;-73
2023/01/02 15:18:03;;;;;;;8.70;1.73;;;10.90;99.90;;;;;;5036573;28;20292;-72
2023/01/02 15:20:33;;;;;;;7.55;1.92;;;10.80;99.90;;;;;;5037402;28;20181;-71
2023/01/02 15:23:00;;;;;;;6.88;2.08;;;10.80;99.90;;;;;;5037385;28;20229;-72
2023/01/02 15:25:38;;;;;;;4.18;2.00;;;10.80;99.90;;;;;;5036893;28;20225;-72
2023/01/02 15:28:22;;;;;;;6.00;2.03;;;10.70;99.90;;;;;;5036850;28;20186;-73
2023/01/02 15:30:58;;;;;;;8.90;3.38;;;10.60;99.90;;;;;;5036773;28;20193;-72
2023/01/02 15:33:27;;;;;;;10.00;4.57;;;10.70;99.90;;;;;;5036640;28;20192;-72
2023/01/02 15:35:56;;;;;;;6.10;2.42;;;10.70;99.90;;;;;;5036970;28;20213;-71
2023/01/02 15:38:23;;;;;;;9.30;2.30;;;10.70;99.90;;;;;;5036491;28;20197;-71
2023/01/02 15:40:50;;;;;;;6.93;2.25;;;10.60;99.90;;;;;;5036432;28;20208;-71
2023/01/02 15:46:02;;;;;;;9.88;2.08;;;10.70;99.90;;;;;;5036229;28;20253;-71
2023/01/02 15:48:29;;;;;;;10.23;1.77;;;10.60;99.90;;;;;;5036363;28;20182;-72
2023/01/02 15:50:58;;;;;;;7.20;2.22;;;10.60;99.90;;;;;;5035336;28;20248;-72
2023/01/02 15:53:28;;;;;;;5.10;2.38;;;10.60;99.90;;;;;;5036374;28;20209;-72
2023/01/02 15:55:55;;;;;;;9.50;1.98;;;10.50;99.90;;;;;;5036207;28;20201;-72
2023/01/02 15:58:28;;;;;;;6.68;2.05;;;10.50;99.90;;;;;;5036111;28;20251;-72
2023/01/02 16:01:13;;;;;;;5.78;1.88;;;10.60;99.90;;;;;;5035743;28;20182;-72
2023/01/02 16:03:42;;;;;;;6.07;2.30;;;10.50;99.90;;;;;;5035890;28;20208;-72
2023/01/02 16:06:18;;;;;;;5.78;3.00;;;10.40;99.90;;;;;;5035951;28;20235;-72
2023/01/02 16:08:49;;;;;;;5.80;2.88;;;10.40;99.90;;;;;;5035939;28;20189;-71
2023/01/02 16:11:17;;;;;;;4.47;2.88;;;10.40;99.90;;;;;;5035619;28;20704;-72
2023/01/02 16:16:46;;;;;;;3.33;1.77;;;10.30;99.90;;;;;;5035566;28;20647;-73
2023/01/02 16:19:19;;;;;;;8.48;2.40;;;10.30;99.90;;;;;;5035742;28;20197;-74
2023/01/02 16:21:46;;;;;;;4.93;1.70;;;10.30;99.90;;;;;;5035551;28;20206;-74
2023/01/02 16:24:18;;;;;;;2.15;1.67;;;10.40;99.90;;;;;;5035596;28;20221;-73
2023/01/02 16:26:46;;;;;;;4.20;1.50;;;10.30;99.90;;;;;;5035605;28;20192;-72
2023/01/02 16:29:18;;;;;;;2.72;1.60;;;10.30;99.90;;;;;;5035594;28;20198;-72
2023/01/02 16:31:57;;;;;;;4.72;2.10;;;10.20;99.90;;;;;;5035533;28;20178;-71
2023/01/02 16:34:34;;;;;;;1.50;1.40;;;10.20;99.90;;;;;;5035255;28;20221;-71
2023/01/02 16:37:29;;;;;;;3.65;1.55;;;10.20;99.90;;;;;;5035422;28;20235;-71
2023/01/02 16:39:57;;;;;;;4.10;1.67;;;10.20;99.90;;;;;;5035498;28;20190;-71
2023/01/02 16:42:40;;;;;;;3.78;1.50;;;10.20;99.90;;;;;;5037716;28;20221;-71
2023/01/02 16:45:10;;;;;;;2.95;2.05;;;10.10;99.90;;;;;;5039985;28;20225;-71
2023/01/02 16:47:39;;;;;;;4.57;1.75;;;10.10;99.90;;;;;;5039874;28;20579;-71
2023/01/02 16:50:11;;;;;;;3.80;1.65;;;10.10;99.90;;;;;;5039695;28;20224;-72
2023/01/02 16:52:50;;;;;;;2.95;1.80;;;10.20;99.90;;;;;;5039887;28;20268;-72
2023/01/02 16:55:18;;;;;;;2.90;1.55;;;10.10;99.90;;;;;;5039548;28;20225;-72
2023/01/02 16:57:46;;;;;;;2.83;1.70;;;9.90;99.90;;;;;;5038923;28;20224;-71
2023/01/02 17:00:16;;;;;;;2.75;1.27;;;9.90;99.90;;;;;;5040273;28;20201;-71
2023/01/02 17:02:44;;;;;;;5.05;2.13;;;9.80;99.90;;;;;;5038540;28;20206;-71
2023/01/02 17:05:16;;;;;;;2.67;1.67;;;9.80;99.90;;;;;;5039485;28;20217;-71
2023/01/02 17:07:44;;;;;;;3.70;1.52;;;9.70;99.90;;;;;;5039133;28;20273;-71
2023/01/02 17:10:10;;;;;;;2.63;1.50;;;9.60;99.90;;;;;;5035658;28;20652;-72
2023/01/02 17:12:37;;;;;;;5.05;2.10;;;9.50;99.90;;;;;;5034734;28;20205;-72
2023/01/02 17:15:05;;;;;;;2.08;1.77;;;9.50;99.90;;;;;;5038119;28;20221;-72
2023/01/02 17:17:33;;;;;;;2.92;1.52;;;9.60;99.90;;;;;;5037324;28;20212;-71
2023/01/02 17:20:00;;;;;;;3.47;1.23;;;9.50;99.90;;;;;;5034977;28;20208;-72
2023/01/02 17:22:27;;;;;;;4.90;1.50;;;9.50;99.90;;;;;;5034686;28;20584;-71
2023/01/02 17:24:55;;;;;;;2.10;1.15;;;9.50;99.90;;;;;;5034949;28;20217;-71
2023/01/02 17:27:22;;;;;;;2.70;1.40;;;9.50;99.90;;;;;;5034916;28;20236;-72
2023/01/02 17:29:48;;;;;;;1.67;1.10;;;9.70;99.90;;;;;;5034870;28;20197;-72
2023/01/02 17:32:15;;;;;;;4.30;1.48;;;9.60;99.90;;;;;;5034494;28;20599;-71
2023/01/02 17:34:43;;;;;;;1.65;1.42;;;9.70;99.90;;;;;;5034870;28;20229;-72
2023/01/02 17:37:10;;;;;;;1.70;1.30;;;9.60;99.90;;;;;;5034682;28;20192;-72